createdAt,value
2023-01-26T00:00:53.165Z,-19715.00
2023-01-26T00:01:55.681Z,-19710.84
2023-01-26T00:02:58.232Z,-19711.75
2023-01-26T00:04:00.805Z,-19709.00
2023-01-26T00:05:03.361Z,-19392.34
2023-01-26T00:06:07.687Z,-19709.19
2023-01-26T00:07:10.205Z,-19392.53
2023-01-26T00:08:12.967Z,-19076.94
2023-01-26T00:09:15.728Z,-19078.34
2023-01-26T00:10:18.379Z,-19080.13
2023-01-26T00:11:32.082Z,-19081.88
2023-01-26T00:12:34.572Z,-18764.97
2023-01-26T00:13:37.701Z,-18767.94
2023-01-26T00:14:52.705Z,-18764.28
2023-01-26T00:15:55.355Z,-18766.53
2023-01-26T00:16:57.980Z,-18447.38
2023-01-26T00:18:00.982Z,-18764.44
2023-01-26T00:19:03.746Z,-18450.28
2023-01-26T00:20:06.628Z,-18448.75
2023-01-26T00:21:13.481Z,-18763.22
2023-01-26T00:22:16.469Z,-18447.03
2023-01-26T00:23:19.356Z,-18448.22
2023-01-26T00:24:22.285Z,-18133.53
2023-01-26T00:25:25.237Z,-18134.88
2023-01-26T00:26:28.835Z,-18136.75
2023-01-26T00:27:33.420Z,-18133.38
2023-01-26T00:28:36.893Z,-18132.34
2023-01-26T00:29:40.004Z,-17814.44
2023-01-26T00:30:43.157Z,-17815.94
2023-01-26T00:31:46.400Z,-17818.09
2023-01-26T00:32:50.685Z,-17501.16
2023-01-26T00:33:57.537Z,-17817.94
2023-01-26T00:35:00.660Z,-17500.84
2023-01-26T00:36:03.898Z,-17502.50
2023-01-26T00:37:07.499Z,-17187.31
2023-01-26T00:38:14.577Z,-17818.28
2023-01-26T00:39:17.697Z,-17504.28
2023-01-26T00:40:20.817Z,-17504.44
2023-01-26T00:41:42.540Z,-17506.91
2023-01-26T00:42:45.660Z,-17507.06
2023-01-26T00:43:48.784Z,-17506.75
2023-01-26T00:44:52.041Z,-17507.88
2023-01-26T00:45:55.147Z,-17824.25
2023-01-26T00:46:58.394Z,-17823.94
2023-01-26T00:48:03.551Z,-18140.47
2023-01-26T00:49:06.672Z,-18138.94
2023-01-26T00:50:10.781Z,-18140.63
2023-01-26T00:51:14.477Z,-18458.53
2023-01-26T00:52:17.729Z,-18459.38
2023-01-26T00:53:21.206Z,-18460.06
2023-01-26T00:54:24.680Z,-18459.03
2023-01-26T00:55:34.411Z,-19088.25
2023-01-26T00:56:37.767Z,-18771.06
2023-01-26T00:57:41.007Z,-19087.88
2023-01-26T00:58:45.932Z,-19085.41
2023-01-26T00:59:49.538Z,-19086.47
2023-01-26T01:00:54.155Z,-19399.53
2023-01-26T01:01:58.431Z,-19401.50
2023-01-26T01:03:02.505Z,-19402.03
2023-01-26T01:04:05.738Z,-19403.47
2023-01-26T01:05:09.945Z,-19405.81
2023-01-26T01:06:12.721Z,-19400.59
2023-01-26T01:07:15.463Z,-19397.03
2023-01-26T01:08:18.223Z,-19400.59
2023-01-26T01:09:20.987Z,-19086.47
2023-01-26T01:10:27.745Z,-19086.47
2023-01-26T01:11:30.229Z,-19086.47
2023-01-26T01:12:33.114Z,-19085.06
2023-01-26T01:13:36.167Z,-19086.84
2023-01-26T01:14:38.996Z,-19087.88
2023-01-26T01:15:41.515Z,-19089.31
2023-01-26T01:16:45.478Z,-19088.78
2023-01-26T01:17:48.407Z,-19087.53
2023-01-26T01:18:55.107Z,-19088.94
2023-01-26T01:19:57.721Z,-19090.91
2023-01-26T01:21:00.246Z,-18771.59
2023-01-26T01:22:02.810Z,-18772.44
2023-01-26T01:23:05.407Z,-19090.72
2023-01-26T01:24:09.734Z,-19088.59
2023-01-26T01:25:13.129Z,-19090.91
2023-01-26T01:26:16.490Z,-19086.84
2023-01-26T01:27:19.011Z,-19089.13
2023-01-26T01:28:21.496Z,-19089.66
2023-01-26T01:29:24.143Z,-19088.41
2023-01-26T01:30:26.899Z,-19088.94
2023-01-26T01:31:30.121Z,-19405.09
2023-01-26T01:32:34.854Z,-19405.63
2023-01-26T01:33:37.741Z,-19400.06
2023-01-26T01:34:41.185Z,-19085.94
2023-01-26T01:35:43.748Z,-19404.38
2023-01-26T01:36:46.381Z,-19087.53
2023-01-26T01:37:49.260Z,-19087.88
2023-01-26T01:38:52.380Z,-19091.78
2023-01-26T01:39:55.019Z,-19088.59
2023-01-26T01:40:57.909Z,-19089.31
2023-01-26T01:42:00.524Z,-19089.31
2023-01-26T01:43:03.065Z,-19091.44
2023-01-26T01:44:31.621Z,-19410.81
2023-01-26T01:45:50.133Z,-19409.56
2023-01-26T01:47:06.786Z,-19409.38
2023-01-26T01:48:27.904Z,-19407.59
2023-01-26T01:49:51.069Z,-19725.56
2023-01-26T01:50:59.109Z,-19410.81
2023-01-26T01:52:26.385Z,-19728.28
2023-01-26T01:53:35.109Z,-19729.56
2023-01-26T01:54:50.950Z,-19725.19
2023-01-26T01:56:00.110Z,-19725.38
2023-01-26T01:57:15.589Z,-20036.94
2023-01-26T01:58:19.873Z,-20037.84
2023-01-26T01:59:22.512Z,-19723.03
2023-01-26T02:00:25.173Z,-20040.44
2023-01-26T02:01:28.394Z,-20038.41
2023-01-26T02:02:31.044Z,-19724.47
2023-01-26T02:03:35.596Z,-19722.84
2023-01-26T02:04:38.597Z,-19723.56
2023-01-26T02:05:56.384Z,-20042.66
2023-01-26T02:07:00.465Z,-19726.28
2023-01-26T02:08:04.764Z,-19728.13
2023-01-26T02:09:08.965Z,-19729.56
2023-01-26T02:10:20.724Z,-19729.03
2023-01-26T02:11:29.735Z,-20042.84
2023-01-26T02:12:37.182Z,-20041.00
2023-01-26T02:13:42.215Z,-20042.84
2023-01-26T02:14:44.861Z,-19724.13
2023-01-26T02:15:48.216Z,-19723.03
2023-01-26T02:16:50.761Z,-19720.66
2023-01-26T02:17:54.462Z,-19721.22
2023-01-26T02:18:58.301Z,-19722.47
2023-01-26T02:20:18.822Z,-19725.56
2023-01-26T02:21:24.102Z,-19728.13
2023-01-26T02:23:15.470Z,-19730.66
2023-01-26T02:24:29.986Z,-19416.91
2023-01-26T02:25:53.159Z,-19419.78
2023-01-26T02:26:56.269Z,-19103.25
2023-01-26T02:27:59.393Z,-19102.56
2023-01-26T02:29:04.566Z,-19417.09
2023-01-26T02:30:08.949Z,-19417.47
2023-01-26T02:31:12.873Z,-19416.91
2023-01-26T02:32:16.448Z,-19419.25
2023-01-26T02:33:24.848Z,-19419.78
2023-01-26T02:34:30.847Z,-19416.38
2023-01-26T02:35:35.407Z,-19416.91
2023-01-26T02:36:38.530Z,-19731.38
2023-01-26T02:37:41.655Z,-19732.47
2023-01-26T02:38:51.859Z,-19734.28
2023-01-26T02:40:03.135Z,-20050.78
2023-01-26T02:41:09.975Z,-20046.16
2023-01-26T02:42:31.346Z,-19729.56
2023-01-26T02:43:34.580Z,-20048.38
2023-01-26T02:44:38.662Z,-20050.22
2023-01-26T02:45:42.385Z,-20049.09
2023-01-26T02:46:45.506Z,-20048.94
2023-01-26T02:47:50.426Z,-20049.09
2023-01-26T02:49:12.171Z,-20046.34
2023-01-26T02:50:15.400Z,-20049.66
2023-01-26T02:51:20.193Z,-20050.03
2023-01-26T02:52:26.320Z,-20049.84
2023-01-26T02:53:36.756Z,-20049.09
2023-01-26T02:54:58.721Z,-20052.25
2023-01-26T02:56:02.080Z,-20052.44
2023-01-26T02:57:05.202Z,-20052.44
2023-01-26T02:58:08.563Z,-20053.91
2023-01-26T02:59:12.165Z,-20049.66
2023-01-26T03:00:37.735Z,-20054.28
2023-01-26T03:01:42.916Z,-20053.91
2023-01-26T03:02:47.696Z,-20056.69
2023-01-26T03:03:51.296Z,-20052.06
2023-01-26T03:04:56.575Z,-20047.63
2023-01-26T03:06:00.896Z,-20050.97
2023-01-26T03:07:04.138Z,-20052.44
2023-01-26T03:08:07.266Z,-20053.16
2023-01-26T03:09:12.680Z,-20054.28
2023-01-26T03:10:18.432Z,-20056.50
2023-01-26T03:11:21.189Z,-20056.13
2023-01-26T03:12:24.068Z,-20057.03
2023-01-26T03:13:26.708Z,-20055.75
2023-01-26T03:14:29.348Z,-20054.28
2023-01-26T03:15:43.993Z,-20057.03
2023-01-26T03:16:48.320Z,-20053.91
2023-01-26T03:17:50.957Z,-20054.28
2023-01-26T03:19:05.723Z,-20055.03
2023-01-26T03:20:30.439Z,-20057.41
2023-01-26T03:21:51.967Z,-20053.91
2023-01-26T03:23:13.573Z,-20053.53
2023-01-26T03:24:34.647Z,-20055.75
2023-01-26T03:25:58.890Z,-20055.94
2023-01-26T03:27:22.103Z,-20056.13
2023-01-26T03:28:24.971Z,-20053.91
2023-01-26T03:29:28.339Z,-20053.72
2023-01-26T03:30:33.887Z,-20051.16
2023-01-26T03:31:36.714Z,-20052.81
2023-01-26T03:32:39.985Z,-20053.38
2023-01-26T03:33:46.099Z,-20055.75
2023-01-26T03:34:48.622Z,-20057.59
2023-01-26T03:35:54.627Z,-20055.75
2023-01-26T03:36:58.590Z,-20054.47
2023-01-26T03:38:03.947Z,-20050.78
2023-01-26T03:39:37.708Z,-20052.63
2023-01-26T03:40:59.436Z,-20052.81
2023-01-26T03:42:20.901Z,-20056.13
2023-01-26T03:43:42.033Z,-20054.28
2023-01-26T03:45:03.040Z,-20055.03
2023-01-26T03:46:24.512Z,-20057.97
2023-01-26T03:47:45.630Z,-20056.50
2023-01-26T03:49:06.626Z,-20055.38
2023-01-26T03:50:28.348Z,-20060.56
2023-01-26T03:51:49.117Z,-20056.13
2023-01-26T03:53:10.594Z,-20054.09
2023-01-26T03:54:31.712Z,-20054.66
2023-01-26T03:55:53.316Z,-20054.47
2023-01-26T03:56:55.828Z,-20055.75
2023-01-26T03:57:58.354Z,-20051.31
2023-01-26T03:59:08.565Z,-20055.03
2023-01-26T04:00:12.163Z,-20057.97
2023-01-26T04:01:26.522Z,-20055.75
2023-01-26T04:02:49.237Z,-20053.16
2023-01-26T04:04:12.404Z,-20054.84
2023-01-26T04:05:33.998Z,-20055.03
2023-01-26T04:06:58.480Z,-20053.16
2023-01-26T04:08:24.174Z,-20058.16
2023-01-26T04:09:32.325Z,-20057.22
2023-01-26T04:10:34.964Z,-20055.94
2023-01-26T04:11:39.644Z,-20055.38
2023-01-26T04:12:42.165Z,-20054.28
2023-01-26T04:14:11.688Z,-20057.41
2023-01-26T04:15:32.329Z,-20062.03
2023-01-26T04:16:54.653Z,-20059.44
2023-01-26T04:18:16.254Z,-20057.22
2023-01-26T04:19:37.267Z,-20054.09
2023-01-26T04:20:58.378Z,-20054.09
2023-01-26T04:22:01.648Z,-20055.75
2023-01-26T04:23:05.946Z,-20056.84
2023-01-26T04:24:16.831Z,-20056.50
2023-01-26T04:25:21.184Z,-20058.34
2023-01-26T04:26:34.929Z,-20061.66
2023-01-26T04:27:40.391Z,-20056.13
2023-01-26T04:28:43.400Z,-20055.38
2023-01-26T04:29:46.995Z,-20055.00
2023-01-26T04:30:50.506Z,-19739.94
2023-01-26T04:31:53.350Z,-19741.56
2023-01-26T04:32:59.364Z,-19740.66
2023-01-26T04:34:04.040Z,-20059.44
2023-01-26T04:35:08.846Z,-20059.81
2023-01-26T04:36:12.686Z,-19741.94
2023-01-26T04:37:20.364Z,-19740.66
2023-01-26T04:38:24.086Z,-19742.31
2023-01-26T04:39:27.329Z,-19742.66
2023-01-26T04:40:32.490Z,-19742.66
2023-01-26T04:41:37.053Z,-19741.56
2023-01-26T04:42:43.415Z,-19741.03
2023-01-26T04:43:46.545Z,-20056.69
2023-01-26T04:44:50.019Z,-19740.84
2023-01-26T04:46:06.160Z,-20060.53
2023-01-26T04:47:12.107Z,-20058.34
2023-01-26T04:48:15.223Z,-19741.94
2023-01-26T04:49:18.347Z,-20057.97
2023-01-26T04:50:21.834Z,-20058.53
2023-01-26T04:51:24.947Z,-20058.34
2023-01-26T04:52:28.071Z,-20058.53
2023-01-26T04:53:32.873Z,-20060.53
2023-01-26T04:54:35.993Z,-19742.66
2023-01-26T04:55:39.122Z,-19741.94
2023-01-26T04:56:42.489Z,-19743.03
2023-01-26T04:57:45.613Z,-19737.22
2023-01-26T04:58:48.720Z,-19736.84
2023-01-26T04:59:52.202Z,-19740.13
2023-01-26T05:00:58.363Z,-19740.84
2023-01-26T05:02:01.808Z,-19427.66
2023-01-26T05:03:05.298Z,-19429.47
2023-01-26T05:04:08.925Z,-19427.31
2023-01-26T05:05:15.611Z,-19428.03
2023-01-26T05:06:18.732Z,-19428.75
2023-01-26T05:07:24.137Z,-19427.66
2023-01-26T05:08:28.577Z,-19427.31
2023-01-26T05:09:31.819Z,-19426.41
2023-01-26T05:10:55.823Z,-19430.53
2023-01-26T05:12:34.594Z,-19426.59
2023-01-26T05:13:49.355Z,-19428.03
2023-01-26T05:14:58.826Z,-19428.56
2023-01-26T05:16:27.205Z,-19429.09
2023-01-26T05:17:39.632Z,-19429.66
2023-01-26T05:19:01.236Z,-19430.00
2023-01-26T05:20:23.929Z,-19426.25
2023-01-26T05:21:38.438Z,-19430.19
2023-01-26T05:22:41.489Z,-19425.69
2023-01-26T05:24:04.632Z,-19744.84
2023-01-26T05:25:27.573Z,-19428.75
2023-01-26T05:26:36.699Z,-19428.03
2023-01-26T05:27:41.493Z,-19429.09
2023-01-26T05:28:44.013Z,-19429.47
2023-01-26T05:29:46.781Z,-19427.31
2023-01-26T05:30:50.116Z,-19112.63
2023-01-26T05:31:52.943Z,-19112.44
2023-01-26T05:33:04.539Z,-19430.38
2023-01-26T05:34:07.978Z,-19113.69
2023-01-26T05:35:12.583Z,-19114.41
2023-01-26T05:36:15.579Z,-19115.81
2023-01-26T05:37:18.218Z,-19115.81
2023-01-26T05:38:21.943Z,-19112.28
2023-01-26T05:39:24.580Z,-18793.69
2023-01-26T05:40:27.549Z,-18794.22
2023-01-26T05:41:30.189Z,-18794.22
2023-01-26T05:43:01.878Z,-18795.59
2023-01-26T05:44:24.946Z,-18796.81
2023-01-26T05:45:36.232Z,-18798.22
2023-01-26T05:46:38.959Z,-18793.69
2023-01-26T05:47:44.736Z,-18798.56
2023-01-26T05:48:47.388Z,-18479.97
2023-01-26T05:49:50.511Z,-18479.97
2023-01-26T05:50:58.668Z,-18482.72
2023-01-26T05:52:01.806Z,-18483.38
2023-01-26T05:53:05.628Z,-18165.97
2023-01-26T05:54:08.630Z,-18164.44
2023-01-26T05:55:11.388Z,-18165.78
2023-01-26T05:56:14.152Z,-18167.47
2023-01-26T05:57:21.231Z,-18167.16
2023-01-26T05:58:28.557Z,-18169.00
2023-01-26T05:59:31.674Z,-18167.81
2023-01-26T06:00:34.317Z,-18166.81
2023-01-26T06:01:43.439Z,-18168.31
2023-01-26T06:02:48.576Z,-18166.31
2023-01-26T06:03:52.688Z,-18166.81
2023-01-26T06:04:55.317Z,-18482.88
2023-01-26T06:05:58.580Z,-18485.09
2023-01-26T06:07:15.724Z,-18485.09
2023-01-26T06:08:26.046Z,-18486.31
2023-01-26T06:09:46.203Z,-18167.31
2023-01-26T06:11:00.505Z,-18484.75
2023-01-26T06:12:18.248Z,-18485.09
2023-01-26T06:13:46.803Z,-18170.84
2023-01-26T06:15:01.447Z,-18172.53
2023-01-26T06:16:13.325Z,-18172.88
2023-01-26T06:17:17.905Z,-18175.09
2023-01-26T06:18:21.369Z,-17856.19
2023-01-26T06:19:28.702Z,-17853.88
2023-01-26T06:20:34.220Z,-17855.53
2023-01-26T06:21:37.816Z,-17852.88
2023-01-26T06:22:40.577Z,-17855.19
2023-01-26T06:23:43.698Z,-17540.13
2023-01-26T06:24:47.304Z,-17223.06
2023-01-26T06:25:55.013Z,-17222.44
2023-01-26T06:26:58.007Z,-17223.25
2023-01-26T06:28:01.721Z,-16905.38
2023-01-26T06:29:05.667Z,-16904.44
2023-01-26T06:30:11.525Z,-16905.06
2023-01-26T06:31:14.642Z,-16589.88
2023-01-26T06:32:17.911Z,-16591.13
2023-01-26T06:33:23.554Z,-16273.69
2023-01-26T06:34:27.058Z,-16272.19
2023-01-26T06:35:30.190Z,-15954.94
2023-01-26T06:36:36.399Z,-15637.09
2023-01-26T06:37:40.600Z,-15637.69
2023-01-26T06:38:51.168Z,-15954.78
2023-01-26T06:39:54.165Z,-15004.38
2023-01-26T06:41:03.887Z,-15638.88
2023-01-26T06:42:08.810Z,-15322.94
2023-01-26T06:43:12.291Z,-14688.78
2023-01-26T06:44:15.410Z,-15006.94
2023-01-26T06:45:20.936Z,-14689.22
2023-01-26T06:46:25.747Z,-14689.50
2023-01-26T06:47:30.548Z,-14373.44
2023-01-26T06:48:35.588Z,-14690.06
2023-01-26T06:49:40.028Z,-14372.34
2023-01-26T06:50:46.996Z,-14054.75
2023-01-26T06:52:22.984Z,-15005.38
2023-01-26T06:53:37.751Z,-14689.50
2023-01-26T06:55:03.671Z,-14054.88
2023-01-26T06:56:22.311Z,-14056.50
2023-01-26T06:57:33.673Z,-13739.84
2023-01-26T06:58:42.438Z,-13740.63
2023-01-26T07:00:04.287Z,-14057.84
2023-01-26T07:01:34.220Z,-14692.00
2023-01-26T07:02:37.474Z,-13740.38
2023-01-26T07:03:40.762Z,-14057.59
2023-01-26T07:04:44.004Z,-13739.31
2023-01-26T07:05:47.369Z,-13739.03
2023-01-26T07:06:50.610Z,-13739.56
2023-01-26T07:07:54.575Z,-13739.19
2023-01-26T07:08:57.811Z,-13422.09
2023-01-26T07:10:01.185Z,-13104.88
2023-01-26T07:11:04.417Z,-13422.22
2023-01-26T07:12:08.257Z,-13422.88
2023-01-26T07:13:11.501Z,-13105.66
2023-01-26T07:14:14.861Z,-12787.91
2023-01-26T07:15:17.985Z,-12788.78
2023-01-26T07:16:21.010Z,-12472.03
2023-01-26T07:17:23.747Z,-12154.66
2023-01-26T07:18:26.992Z,-12472.03
2023-01-26T07:19:31.547Z,-11838.22
2023-01-26T07:20:34.436Z,-11839.38
2023-01-26T07:21:39.241Z,-11521.59
2023-01-26T07:22:41.875Z,-11521.25
2023-01-26T07:23:45.716Z,-11838.56
2023-01-26T07:24:48.599Z,-11522.63
2023-01-26T07:25:51.176Z,-11839.50
2023-01-26T07:26:53.880Z,-12158.13
2023-01-26T07:28:00.183Z,-13429.00
2023-01-26T07:29:02.768Z,-12477.16
2023-01-26T07:30:06.130Z,-12793.53
2023-01-26T07:31:10.830Z,-12157.03
2023-01-26T07:32:13.621Z,-12476.44
2023-01-26T07:33:16.256Z,-12474.84
2023-01-26T07:34:19.019Z,-12475.44
2023-01-26T07:35:21.542Z,-12793.16
2023-01-26T07:36:24.065Z,-12793.41
2023-01-26T07:37:30.739Z,-13743.28
2023-01-26T07:38:34.627Z,-13743.03
2023-01-26T07:39:37.155Z,-13109.59
2023-01-26T07:40:39.760Z,-12792.41
2023-01-26T07:41:42.310Z,-13109.09
2023-01-26T07:43:03.063Z,-14060.84
2023-01-26T07:44:34.523Z,-13425.75
2023-01-26T07:45:37.264Z,-13742.50
2023-01-26T07:46:40.259Z,-14058.81
2023-01-26T07:47:42.791Z,-14059.47
2023-01-26T07:48:45.327Z,-13425.75
2023-01-26T07:49:47.949Z,-13742.50
2023-01-26T07:50:51.299Z,-12475.94
2023-01-26T07:51:54.310Z,-11524.22
2023-01-26T07:52:56.838Z,-13108.44
2023-01-26T07:53:59.708Z,-11524.69
2023-01-26T07:55:02.351Z,-12159.19
2023-01-26T07:56:12.910Z,-12794.16
2023-01-26T07:57:15.455Z,-11842.28
2023-01-26T07:58:21.469Z,-11843.22
2023-01-26T07:59:24.437Z,-12160.50
2023-01-26T08:00:27.221Z,-13112.00
2023-01-26T08:01:29.898Z,-13430.94
2023-01-26T08:02:32.369Z,-10577.63
2023-01-26T08:03:35.484Z,-10894.06
2023-01-26T08:04:38.002Z,-11211.00
2023-01-26T08:05:40.524Z,-11845.34
2023-01-26T08:06:43.275Z,-11846.38
2023-01-26T08:07:45.919Z,-11212.00
2023-01-26T08:08:54.087Z,-13114.56
2023-01-26T08:09:56.606Z,-12480.22
2023-01-26T08:11:03.203Z,-12796.66
2023-01-26T08:12:05.965Z,-12162.06
2023-01-26T08:13:08.510Z,-11844.97
2023-01-26T08:14:11.003Z,-12162.78
2023-01-26T08:15:13.526Z,-11213.56
2023-01-26T08:16:15.941Z,-11214.12
2023-01-26T08:17:19.765Z,-11847.56
2023-01-26T08:18:22.294Z,-12480.94
2023-01-26T08:19:24.817Z,-9309.81
2023-01-26T08:20:27.386Z,-10261.97
2023-01-26T08:21:30.089Z,-11529.47
2023-01-26T08:22:33.099Z,-11214.44
2023-01-26T08:23:36.092Z,-11850.72
2023-01-26T08:24:38.617Z,-12484.59
2023-01-26T08:25:41.205Z,-12802.13
2023-01-26T08:26:43.901Z,-10265.31
2023-01-26T08:27:46.423Z,-11533.81
2023-01-26T08:28:49.183Z,-11215.56
2023-01-26T08:29:51.706Z,-11852.56
2023-01-26T08:30:54.276Z,-12803.13
2023-01-26T08:31:56.896Z,-11853.03
2023-01-26T08:32:59.510Z,-13755.88
2023-01-26T08:34:02.272Z,-11852.47
2023-01-26T08:35:05.162Z,-13120.16
2023-01-26T08:36:11.273Z,-13755.06
2023-01-26T08:37:14.051Z,-13120.91
2023-01-26T08:38:16.796Z,-13439.25
2023-01-26T08:39:20.040Z,-13438.59
2023-01-26T08:40:22.683Z,-13438.19
2023-01-26T08:41:25.447Z,-13119.78
2023-01-26T08:42:28.333Z,-13756.25
2023-01-26T08:43:31.457Z,-13438.84
2023-01-26T08:44:34.330Z,-13438.47
2023-01-26T08:45:37.352Z,-13121.19
2023-01-26T08:46:40.341Z,-13438.84
2023-01-26T08:47:43.452Z,-13439.75
2023-01-26T08:48:46.581Z,-13441.31
2023-01-26T08:49:49.698Z,-13124.75
2023-01-26T08:50:56.779Z,-13761.56
2023-01-26T08:52:00.028Z,-13126.78
2023-01-26T08:53:03.319Z,-12809.38
2023-01-26T08:54:08.665Z,-13127.53
2023-01-26T08:55:11.798Z,-12811.22
2023-01-26T08:56:14.911Z,-13132.13
2023-01-26T08:57:18.032Z,-13130.84
2023-01-26T08:58:21.157Z,-12813.34
2023-01-26T08:59:24.272Z,-13449.13
2023-01-26T09:00:27.993Z,-13448.97
2023-01-26T09:01:31.195Z,-13132.88
2023-01-26T09:02:34.655Z,-12815.72
2023-01-26T09:03:38.204Z,-12816.22
2023-01-26T09:04:41.327Z,-13133.91
2023-01-26T09:05:44.466Z,-13134.78
2023-01-26T09:06:47.563Z,-12817.34
2023-01-26T09:07:50.687Z,-13135.94
2023-01-26T09:08:53.808Z,-13773.22
2023-01-26T09:09:57.050Z,-13772.44
2023-01-26T09:11:00.650Z,-14405.09
2023-01-26T09:12:04.976Z,-14721.63
2023-01-26T09:13:08.336Z,-15039.09
2023-01-26T09:14:11.458Z,-15356.97
2023-01-26T09:15:14.822Z,-15357.84
2023-01-26T09:16:20.979Z,-15996.38
2023-01-26T09:17:24.185Z,-15998.19
2023-01-26T09:18:27.549Z,-15681.25
2023-01-26T09:19:31.231Z,-15999.69
2023-01-26T09:20:34.391Z,-16002.09
2023-01-26T09:21:37.267Z,-16003.63
2023-01-26T09:22:40.392Z,-16639.59
2023-01-26T09:23:43.273Z,-16637.91
2023-01-26T09:24:45.913Z,-17272.69
2023-01-26T09:25:53.967Z,-17593.19
2023-01-26T09:26:57.087Z,-17594.81
2023-01-26T09:27:59.601Z,-17597.91
2023-01-26T09:29:02.488Z,-17600.06
2023-01-26T09:30:07.078Z,-17919.06
2023-01-26T09:31:11.600Z,-18240.28
2023-01-26T09:32:14.852Z,-18243.50
2023-01-26T09:33:17.488Z,-18882.84
2023-01-26T09:34:20.054Z,-18884.56
2023-01-26T09:35:22.583Z,-18887.38
2023-01-26T09:36:25.178Z,-18884.56
2023-01-26T09:37:27.748Z,-19524.84
2023-01-26T09:38:31.220Z,-19845.63
2023-01-26T09:39:34.349Z,-19845.81
2023-01-26T09:41:13.100Z,-20165.72
2023-01-26T09:43:06.624Z,-20174.22
2023-01-26T09:44:20.312Z,-20175.88
2023-01-26T09:46:03.906Z,-20183.09
2023-01-26T09:47:24.507Z,-20185.28
2023-01-26T09:48:33.036Z,-20189.34
2023-01-26T09:50:00.519Z,-20190.09
2023-01-26T09:51:24.867Z,-20194.53
2023-01-26T09:52:32.670Z,-20197.47
2023-01-26T09:54:01.493Z,-20200.78
2023-01-26T09:55:07.231Z,-20201.16
2023-01-26T09:56:22.568Z,-20196.91
2023-01-26T09:58:00.275Z,-20195.06
2023-01-26T09:59:38.529Z,-20195.25
2023-01-26T10:00:48.892Z,-20195.06
2023-01-26T10:02:18.177Z,-20194.53
2023-01-26T10:03:39.879Z,-20191.19
2023-01-26T10:04:46.125Z,-20191.19
2023-01-26T10:06:07.357Z,-20193.03
2023-01-26T10:07:36.163Z,-20192.69
2023-01-26T10:08:38.804Z,-20192.69
2023-01-26T10:09:46.269Z,-20195.25
2023-01-26T10:10:54.405Z,-20196.38
2023-01-26T10:12:01.366Z,-20197.84
2023-01-26T10:13:04.495Z,-20200.44
2023-01-26T10:14:33.911Z,-20200.44
2023-01-26T10:15:43.336Z,-20201.72
2023-01-26T10:16:49.124Z,-20204.50
2023-01-26T10:17:55.124Z,-20207.44
2023-01-26T10:19:05.683Z,-20210.94
2023-01-26T10:20:29.567Z,-20213.72
2023-01-26T10:21:37.639Z,-20214.09
2023-01-26T10:22:46.270Z,-20214.28
2023-01-26T10:23:49.668Z,-20217.78
2023-01-26T10:24:53.690Z,-20219.44
2023-01-26T10:26:17.822Z,-20223.69
2023-01-26T10:27:20.456Z,-20220.00
2023-01-26T10:28:37.260Z,-20224.78
2023-01-26T10:29:40.058Z,-20225.16
2023-01-26T10:30:44.559Z,-20230.31
2023-01-26T10:31:47.269Z,-20241.75
2023-01-26T10:32:52.870Z,-20255.78
2023-01-26T10:33:58.870Z,-20256.53
2023-01-26T10:35:01.508Z,-20255.06
2023-01-26T10:36:07.029Z,-20253.94
2023-01-26T10:37:21.562Z,-20248.41
2023-01-26T10:38:32.852Z,-20245.09
2023-01-26T10:39:35.355Z,-20242.31
2023-01-26T10:40:45.609Z,-20239.91
2023-01-26T10:41:58.412Z,-20233.44
2023-01-26T10:43:01.160Z,-19593.53
2023-01-26T10:44:09.924Z,-19270.97
2023-01-26T10:45:29.137Z,-19589.78
2023-01-26T10:46:36.766Z,-19905.84
2023-01-26T10:47:39.810Z,-19906.75
2023-01-26T10:48:53.137Z,-20224.41
2023-01-26T10:50:28.657Z,-20222.19
2023-01-26T10:51:33.935Z,-20224.41
2023-01-26T10:52:37.193Z,-20228.84
2023-01-26T10:53:40.183Z,-20230.31
2023-01-26T10:54:45.109Z,-20234.75
2023-01-26T10:56:16.543Z,-20246.94
2023-01-26T10:57:22.554Z,-20263.91
2023-01-26T10:58:39.825Z,-20285.69
2023-01-26T10:59:54.353Z,-20296.41
2023-01-26T11:00:57.592Z,-20302.69
2023-01-26T11:02:11.393Z,-20308.59
2023-01-26T11:03:14.518Z,-17433.50
2023-01-26T11:04:17.772Z,-14879.97
2023-01-26T11:05:26.158Z,-12319.84
2023-01-26T11:06:31.081Z,-10721.56
2023-01-26T11:07:38.401Z,-8479.25
2023-01-26T11:08:41.769Z,-4950.38
2023-01-26T11:09:44.889Z,-1091.78
2023-01-26T11:10:54.383Z,194.25
2023-01-26T11:12:01.100Z,2447.13
2023-01-26T11:13:15.133Z,2769.06
2023-01-26T11:14:20.177Z,1481.09
2023-01-26T11:15:25.583Z,3735.91
2023-01-26T11:16:29.228Z,5024.69
2023-01-26T11:17:45.857Z,6636.88
2023-01-26T11:19:00.983Z,4381.38
2023-01-26T11:20:08.185Z,6962.03
2023-01-26T11:21:36.172Z,3738.97
2023-01-26T11:22:45.635Z,1801.72
2023-01-26T11:24:17.712Z,10542.84
2023-01-26T11:26:19.801Z,24205.09
2023-01-26T11:27:35.348Z,60186.19
2023-01-26T11:28:54.887Z,83685.91
2023-01-26T11:30:43.885Z,120376.13
2023-01-26T11:32:14.594Z,148347.13
2023-01-26T11:33:55.366Z,148478.13
2023-01-26T11:35:18.049Z,148442.94
2023-01-26T11:36:48.288Z,148427.19
2023-01-26T11:38:17.141Z,148412.63
2023-01-26T11:39:41.145Z,148254.97
2023-01-26T11:40:51.055Z,148155.56
2023-01-26T11:42:02.742Z,148048.88
2023-01-26T11:43:23.105Z,148037.97
2023-01-26T11:44:43.189Z,148010.09
2023-01-26T11:46:18.231Z,147930.16
2023-01-26T11:47:31.666Z,136730.06
2023-01-26T11:49:14.632Z,111313.84
2023-01-26T11:50:40.645Z,91730.41
2023-01-26T11:51:58.192Z,79829.13
2023-01-26T11:53:25.999Z,67620.25
2023-01-26T11:54:39.961Z,52867.94
2023-01-26T11:55:55.912Z,52538.06
2023-01-26T11:57:20.847Z,52536.41
2023-01-26T11:58:39.474Z,52216.50
2023-01-26T11:59:45.233Z,53174.75
2023-01-26T12:00:53.012Z,56454.75
2023-01-26T12:02:03.196Z,64016.81
2023-01-26T12:03:12.247Z,77168.78
2023-01-26T12:04:19.796Z,84751.97
2023-01-26T12:05:29.288Z,90705.38
2023-01-26T12:06:43.582Z,86412.09
2023-01-26T12:07:57.384Z,91744.47
2023-01-26T12:09:21.604Z,109999.59
2023-01-26T12:10:36.841Z,128297.78
2023-01-26T12:11:42.965Z,131737.97
2023-01-26T12:12:53.907Z,147869.56
2023-01-26T12:14:14.766Z,147915.56
2023-01-26T12:15:25.566Z,148017.38
2023-01-26T12:16:42.947Z,148016.16
2023-01-26T12:18:05.651Z,147999.22
2023-01-26T12:19:20.060Z,148030.72
2023-01-26T12:20:37.823Z,148079.16
2023-01-26T12:21:45.440Z,148156.75
2023-01-26T12:23:13.691Z,148204.00
2023-01-26T12:24:54.080Z,148170.06
2023-01-26T12:25:58.008Z,148136.16
2023-01-26T12:27:05.064Z,148199.19
2023-01-26T12:28:37.453Z,148201.59
2023-01-26T12:30:07.340Z,148131.31
2023-01-26T12:31:17.028Z,148133.72
2023-01-26T12:32:19.707Z,148051.28
2023-01-26T12:33:22.469Z,148085.22
2023-01-26T12:34:32.081Z,148054.91
2023-01-26T12:35:48.511Z,147999.22
2023-01-26T12:37:20.072Z,147988.28
2023-01-26T12:38:43.711Z,147939.84
2023-01-26T12:40:02.560Z,147922.81
2023-01-26T12:41:16.837Z,147852.56
2023-01-26T12:42:44.320Z,147799.31
2023-01-26T12:44:11.697Z,147753.28
2023-01-26T12:45:37.012Z,147770.25
2023-01-26T12:46:43.483Z,147719.38
2023-01-26T12:47:53.565Z,147697.63
2023-01-26T12:49:02.977Z,147661.25
2023-01-26T12:50:26.690Z,147628.59
2023-01-26T12:51:40.257Z,147610.47
2023-01-26T12:52:55.257Z,144173.88
2023-01-26T12:54:00.551Z,141702.13
2023-01-26T12:55:16.742Z,143179.19
2023-01-26T12:56:27.063Z,137344.41
2023-01-26T12:57:45.181Z,147667.34
2023-01-26T12:58:52.027Z,147680.66
2023-01-26T13:00:06.184Z,147654.00
2023-01-26T13:01:12.906Z,146249.81
2023-01-26T13:02:16.111Z,137593.50
2023-01-26T13:03:22.154Z,134239.97
2023-01-26T13:04:25.632Z,135552.16
2023-01-26T13:05:34.994Z,133554.41
2023-01-26T13:06:38.116Z,136328.56